createdAt,value
2023-02-19T00:00:14.449Z,87.49
2023-02-19T00:01:14.601Z,87.83
2023-02-19T00:01:52.506Z,87.96
2023-02-19T00:02:26.114Z,88.09
2023-02-19T00:02:59.805Z,87.53
2023-02-19T00:03:33.244Z,87.60
2023-02-19T00:04:10.463Z,87.74
2023-02-19T00:04:44.155Z,87.84
2023-02-19T00:05:18.045Z,87.55
2023-02-19T00:05:51.646Z,87.47
2023-02-19T00:06:27.114Z,87.69
2023-02-19T00:07:00.784Z,87.75
2023-02-19T00:07:34.354Z,87.83
2023-02-19T00:08:09.149Z,87.71
2023-02-19T00:08:42.777Z,87.80
2023-02-19T00:09:19.240Z,87.82
2023-02-19T00:09:55.801Z,87.81
2023-02-19T00:10:29.445Z,87.88
2023-02-19T00:11:04.992Z,87.75
2023-02-19T00:11:39.406Z,87.72
2023-02-19T00:12:13.157Z,87.98
2023-02-19T00:12:46.825Z,87.71
2023-02-19T00:13:20.584Z,87.44
2023-02-19T00:13:55.879Z,87.54
2023-02-19T00:14:29.821Z,87.25
2023-02-19T00:15:03.669Z,87.47
2023-02-19T00:15:37.285Z,87.88
2023-02-19T00:16:14.485Z,87.64
2023-02-19T00:16:48.941Z,87.66
2023-02-19T00:17:22.632Z,87.76
2023-02-19T00:17:56.258Z,87.07
2023-02-19T00:18:29.783Z,87.25
2023-02-19T00:19:06.600Z,87.08
2023-02-19T00:19:40.272Z,86.98
2023-02-19T00:20:14.603Z,87.12
2023-02-19T00:20:48.307Z,87.37
2023-02-19T00:21:24.915Z,87.24
2023-02-19T00:21:58.608Z,87.41
2023-02-19T00:22:32.133Z,87.48
2023-02-19T00:23:05.812Z,87.05
2023-02-19T00:23:39.843Z,86.80
2023-02-19T00:24:14.981Z,86.96
2023-02-19T00:24:49.854Z,87.09
2023-02-19T00:25:24.532Z,87.44
2023-02-19T00:26:17.128Z,87.53
2023-02-19T00:26:52.341Z,87.52
2023-02-19T00:27:25.941Z,87.37
2023-02-19T00:27:59.576Z,87.52
2023-02-19T00:28:33.449Z,87.71
2023-02-19T00:29:07.563Z,87.78
2023-02-19T00:29:41.251Z,87.63
2023-02-19T00:30:14.834Z,87.78
2023-02-19T00:30:48.660Z,87.70
2023-02-19T00:31:32.700Z,87.83
2023-02-19T00:32:07.100Z,87.80
2023-02-19T00:32:40.967Z,87.73
2023-02-19T00:33:17.668Z,87.67
2023-02-19T00:33:53.900Z,87.60
2023-02-19T00:34:27.763Z,87.77
2023-02-19T00:35:01.252Z,87.66
2023-02-19T00:35:35.919Z,87.68
2023-02-19T00:36:09.639Z,87.51
2023-02-19T00:36:43.899Z,87.68
2023-02-19T00:37:17.495Z,87.94
2023-02-19T00:37:51.105Z,87.89
2023-02-19T00:38:24.578Z,87.95
2023-02-19T00:38:58.268Z,88.06
2023-02-19T00:39:31.942Z,88.12
2023-02-19T00:40:05.825Z,88.02
2023-02-19T00:40:40.043Z,88.30
2023-02-19T00:41:21.563Z,88.08
2023-02-19T00:41:55.256Z,88.09
2023-02-19T00:42:28.856Z,87.96
2023-02-19T00:43:02.456Z,88.00
2023-02-19T00:43:36.154Z,88.01
2023-02-19T00:44:11.660Z,88.15
2023-02-19T00:44:45.472Z,88.23
2023-02-19T00:45:19.384Z,88.17
2023-02-19T00:45:52.981Z,88.26
2023-02-19T00:46:30.383Z,87.71
2023-02-19T00:47:03.974Z,87.84
2023-02-19T00:47:37.673Z,88.16
2023-02-19T00:48:13.080Z,87.81
2023-02-19T00:48:46.721Z,87.97
2023-02-19T00:49:24.325Z,88.26
2023-02-19T00:49:57.929Z,88.35
2023-02-19T00:50:31.439Z,88.63
2023-02-19T00:51:05.175Z,88.42
2023-02-19T00:51:39.451Z,88.33
2023-02-19T00:52:12.994Z,88.33
2023-02-19T00:52:46.512Z,87.87
2023-02-19T00:53:20.181Z,88.27
2023-02-19T00:53:54.413Z,88.24
2023-02-19T00:54:28.073Z,88.29
2023-02-19T00:55:01.884Z,88.24
2023-02-19T00:55:35.641Z,88.34
2023-02-19T00:56:09.717Z,88.36
2023-02-19T00:56:43.420Z,88.40
2023-02-19T00:57:17.008Z,88.30
2023-02-19T00:57:50.569Z,88.36
2023-02-19T00:58:24.338Z,88.31
2023-02-19T00:58:57.981Z,88.35
2023-02-19T00:59:32.259Z,88.13
2023-02-19T01:00:06.903Z,88.28
2023-02-19T01:00:40.499Z,88.32
2023-02-19T01:01:14.482Z,88.42
2023-02-19T01:01:49.864Z,88.32
2023-02-19T01:02:23.990Z,88.51
2023-02-19T01:02:57.514Z,88.48
2023-02-19T01:03:36.688Z,88.40
2023-02-19T01:04:10.791Z,88.55
2023-02-19T01:04:44.473Z,88.02
2023-02-19T01:05:18.301Z,88.13
2023-02-19T01:05:52.716Z,88.15
2023-02-19T01:06:26.569Z,88.15
2023-02-19T01:07:00.252Z,88.27
2023-02-19T01:07:37.282Z,88.22
2023-02-19T01:08:10.941Z,88.47
2023-02-19T01:08:44.865Z,88.38
2023-02-19T01:09:20.613Z,88.46
2023-02-19T01:09:57.756Z,88.42
2023-02-19T01:10:32.789Z,88.56
2023-02-19T01:11:08.922Z,88.40
2023-02-19T01:11:42.701Z,88.37
2023-02-19T01:12:16.250Z,88.05
2023-02-19T01:12:49.853Z,87.80
2023-02-19T01:13:23.697Z,88.02
2023-02-19T01:13:58.769Z,88.11
2023-02-19T01:14:33.352Z,88.53
2023-02-19T01:15:07.347Z,88.55
2023-02-19T01:15:41.085Z,88.41
2023-02-19T01:16:20.898Z,88.55
2023-02-19T01:16:54.446Z,88.53
2023-02-19T01:17:28.039Z,88.60
2023-02-19T01:18:01.792Z,88.70
2023-02-19T01:18:36.717Z,88.53
2023-02-19T01:19:10.342Z,88.54
2023-02-19T01:19:43.944Z,88.63
2023-02-19T01:20:17.609Z,88.43
2023-02-19T01:20:51.244Z,88.46
2023-02-19T01:21:27.399Z,88.47
2023-02-19T01:22:00.991Z,88.74
2023-02-19T01:22:38.687Z,88.66
2023-02-19T01:23:14.086Z,88.71
2023-02-19T01:23:48.670Z,88.46
2023-02-19T01:24:22.336Z,88.60
2023-02-19T01:24:56.118Z,88.54
2023-02-19T01:25:29.776Z,88.60
2023-02-19T01:26:07.696Z,88.60
2023-02-19T01:26:41.346Z,88.64
2023-02-19T01:27:14.972Z,88.47
2023-02-19T01:27:49.103Z,88.53
2023-02-19T01:28:24.150Z,88.56
2023-02-19T01:28:58.377Z,88.32
2023-02-19T01:29:31.992Z,88.37
2023-02-19T01:30:05.845Z,88.23
2023-02-19T01:30:40.252Z,88.36
2023-02-19T01:31:17.743Z,88.45
2023-02-19T01:31:51.442Z,88.55
2023-02-19T01:32:25.016Z,88.56
2023-02-19T01:32:58.518Z,88.56
2023-02-19T01:33:32.583Z,88.60
2023-02-19T01:34:06.740Z,88.62
2023-02-19T01:34:40.439Z,88.65
2023-02-19T01:35:13.951Z,88.56
2023-02-19T01:35:47.464Z,88.63
2023-02-19T01:36:21.440Z,88.57
2023-02-19T01:36:54.976Z,88.47
2023-02-19T01:37:29.479Z,88.18
2023-02-19T01:38:03.099Z,88.23
2023-02-19T01:38:36.817Z,88.08
2023-02-19T01:39:10.874Z,88.00
2023-02-19T01:39:44.474Z,87.78
2023-02-19T01:40:18.062Z,86.89
2023-02-19T01:40:57.119Z,87.04
2023-02-19T01:41:31.037Z,87.42
2023-02-19T01:42:13.143Z,87.93
2023-02-19T01:42:46.757Z,87.93
2023-02-19T01:43:20.499Z,88.05
2023-02-19T01:43:58.377Z,88.21
2023-02-19T01:44:31.889Z,88.27
2023-02-19T01:45:25.882Z,88.27
2023-02-19T01:46:00.623Z,88.62
2023-02-19T01:46:37.194Z,88.54
2023-02-19T01:47:11.049Z,88.45
2023-02-19T01:47:46.151Z,88.48
2023-02-19T01:48:23.000Z,88.63
2023-02-19T01:49:01.358Z,88.57
2023-02-19T01:49:48.998Z,88.87
2023-02-19T01:50:24.292Z,88.99
2023-02-19T01:51:05.531Z,88.70
2023-02-19T01:51:47.763Z,88.90
2023-02-19T01:52:24.073Z,88.92
2023-02-19T01:52:57.860Z,88.91
2023-02-19T01:53:34.649Z,89.04
2023-02-19T01:54:15.712Z,88.76
2023-02-19T01:54:50.265Z,88.85
2023-02-19T01:55:24.603Z,88.87
2023-02-19T01:56:01.551Z,89.03
2023-02-19T01:56:41.130Z,88.81
2023-02-19T01:57:19.683Z,88.89
2023-02-19T01:57:56.628Z,88.79
2023-02-19T01:58:33.853Z,88.88
2023-02-19T01:59:07.926Z,88.66
2023-02-19T01:59:42.048Z,88.84
2023-02-19T02:00:17.488Z,88.88
2023-02-19T02:00:53.324Z,88.86
2023-02-19T02:01:27.024Z,88.99
2023-02-19T02:02:01.508Z,88.98
2023-02-19T02:02:40.645Z,88.88
2023-02-19T02:03:14.541Z,88.98
2023-02-19T02:03:49.839Z,88.98
2023-02-19T02:04:23.552Z,89.03
2023-02-19T02:05:02.694Z,88.91
2023-02-19T02:05:50.474Z,89.00
2023-02-19T02:06:34.529Z,88.84
2023-02-19T02:07:28.794Z,88.92
2023-02-19T02:08:22.243Z,88.98
2023-02-19T02:09:16.989Z,89.07
2023-02-19T02:10:09.783Z,88.98
2023-02-19T02:10:44.211Z,88.99
2023-02-19T02:11:19.020Z,89.08
2023-02-19T02:11:53.665Z,89.10
2023-02-19T02:12:27.199Z,89.09
2023-02-19T02:13:00.692Z,89.16
2023-02-19T02:13:36.243Z,89.22
2023-02-19T02:14:10.138Z,89.13
2023-02-19T02:14:47.376Z,89.03
2023-02-19T02:15:22.518Z,88.99
2023-02-19T02:16:17.623Z,89.07
2023-02-19T02:17:10.129Z,89.20
2023-02-19T02:18:20.619Z,89.09
2023-02-19T02:19:06.202Z,89.12
2023-02-19T02:19:42.444Z,89.02
2023-02-19T02:20:28.725Z,89.16
2023-02-19T02:21:21.364Z,89.03
2023-02-19T02:22:06.217Z,89.06
2023-02-19T02:23:09.071Z,89.05
2023-02-19T02:24:03.193Z,89.16
2023-02-19T02:25:15.474Z,89.10
2023-02-19T02:26:07.868Z,89.09
2023-02-19T02:27:20.088Z,88.95
2023-02-19T02:28:12.297Z,89.20
2023-02-19T02:29:20.128Z,89.19
2023-02-19T02:29:56.874Z,89.35
2023-02-19T02:30:43.205Z,89.23
2023-02-19T02:31:37.951Z,89.20
2023-02-19T02:32:20.021Z,89.24
2023-02-19T02:33:27.556Z,89.27
2023-02-19T02:35:02.575Z,89.63
2023-02-19T02:35:46.564Z,89.47
2023-02-19T02:36:27.485Z,89.74
2023-02-19T02:37:02.847Z,89.66
2023-02-19T02:37:41.174Z,89.54
2023-02-19T02:38:17.195Z,89.61
2023-02-19T02:38:54.381Z,89.64
2023-02-19T02:39:29.761Z,89.35
2023-02-19T02:40:06.063Z,89.18
2023-02-19T02:40:43.923Z,89.08
2023-02-19T02:41:17.914Z,89.18
2023-02-19T02:42:15.959Z,89.47
2023-02-19T02:42:49.788Z,89.63
2023-02-19T02:43:23.523Z,89.52
2023-02-19T02:43:57.664Z,89.41
2023-02-19T02:44:35.830Z,89.65
2023-02-19T02:45:37.108Z,89.45
2023-02-19T02:46:23.761Z,89.88
2023-02-19T02:46:57.324Z,89.88
2023-02-19T02:47:43.580Z,89.88
2023-02-19T02:48:21.216Z,89.59
2023-02-19T02:50:57.802Z,89.74
2023-02-19T02:51:39.040Z,89.59
2023-02-19T02:52:39.857Z,89.71
2023-02-19T02:53:42.237Z,89.61
2023-02-19T02:54:45.242Z,89.78
2023-02-19T02:55:19.832Z,89.72
2023-02-19T02:55:54.862Z,89.84
2023-02-19T02:56:30.966Z,89.84
2023-02-19T02:57:07.100Z,89.95
2023-02-19T02:57:41.541Z,89.55
2023-02-19T02:58:17.534Z,89.79
2023-02-19T02:58:53.866Z,89.81
2023-02-19T02:59:32.775Z,89.66
2023-02-19T03:00:07.343Z,89.56
2023-02-19T03:01:04.164Z,89.70
2023-02-19T03:02:14.705Z,89.56
2023-02-19T03:02:48.931Z,89.79
2023-02-19T03:03:26.925Z,89.47
2023-02-19T03:04:06.274Z,89.57
2023-02-19T03:05:17.359Z,89.80
2023-02-19T03:05:55.301Z,89.93
2023-02-19T03:06:31.998Z,89.99
2023-02-19T03:07:09.836Z,89.82
2023-02-19T03:07:46.838Z,89.43
2023-02-19T03:09:10.571Z,89.67
2023-02-19T03:09:49.666Z,90.16
2023-02-19T03:10:41.588Z,90.32
2023-02-19T03:11:33.902Z,90.23
2023-02-19T03:12:32.336Z,90.30
2023-02-19T03:13:30.267Z,90.14
2023-02-19T03:14:35.443Z,90.41
2023-02-19T03:15:29.727Z,90.48
2023-02-19T03:16:30.018Z,90.35
2023-02-19T03:17:39.826Z,90.52
2023-02-19T03:18:33.232Z,90.94
2023-02-19T03:19:19.432Z,90.83
2023-02-19T03:19:57.802Z,91.02
2023-02-19T03:20:37.060Z,90.95
2023-02-19T03:21:12.130Z,91.09
2023-02-19T03:22:11.025Z,90.92
2023-02-19T03:22:46.475Z,91.02
2023-02-19T03:23:43.006Z,91.02
2023-02-19T03:24:38.926Z,91.10
2023-02-19T03:25:40.195Z,90.97
2023-02-19T03:26:15.119Z,91.10
2023-02-19T03:26:54.532Z,91.28
2023-02-19T03:27:33.991Z,91.23
2023-02-19T03:28:11.498Z,91.18
2023-02-19T03:29:06.903Z,91.30
2023-02-19T03:29:43.939Z,91.10
2023-02-19T03:30:24.399Z,91.32
2023-02-19T03:30:58.078Z,91.30
2023-02-19T03:31:34.224Z,91.13
2023-02-19T03:32:34.731Z,91.35
2023-02-19T03:33:26.447Z,91.15
2023-02-19T03:34:05.982Z,91.43
2023-02-19T03:34:48.907Z,91.32
2023-02-19T03:35:26.689Z,91.32
2023-02-19T03:36:05.811Z,91.51
2023-02-19T03:36:44.796Z,91.49
2023-02-19T03:37:37.524Z,91.13
2023-02-19T03:38:20.444Z,91.33
2023-02-19T03:39:04.894Z,91.21
2023-02-19T03:39:44.610Z,91.30
2023-02-19T03:40:24.595Z,91.44
2023-02-19T03:41:31.386Z,91.36
2023-02-19T03:42:25.188Z,91.51
2023-02-19T03:43:21.365Z,91.45
2023-02-19T03:44:03.273Z,91.48
2023-02-19T03:44:36.835Z,91.50
2023-02-19T03:45:19.905Z,91.53
2023-02-19T03:46:07.192Z,91.58
2023-02-19T03:46:57.222Z,91.38
2023-02-19T03:47:39.837Z,90.91
2023-02-19T03:48:36.093Z,91.11
2023-02-19T03:49:18.225Z,91.22
2023-02-19T03:50:16.189Z,90.98
2023-02-19T03:51:02.344Z,91.15
2023-02-19T03:52:03.382Z,91.13
2023-02-19T03:52:54.770Z,91.26
2023-02-19T03:53:36.919Z,91.30
2023-02-19T03:54:38.107Z,91.33
2023-02-19T03:55:15.329Z,91.20
2023-02-19T03:56:05.304Z,91.15
2023-02-19T03:56:46.437Z,91.30
2023-02-19T03:57:34.133Z,91.40
2023-02-19T03:58:22.860Z,91.24
2023-02-19T03:59:11.851Z,91.52
2023-02-19T04:00:10.242Z,91.06
2023-02-19T04:01:05.965Z,91.60
2023-02-19T04:01:54.376Z,91.56
2023-02-19T04:02:39.539Z,91.54
2023-02-19T04:03:20.962Z,91.71
2023-02-19T04:04:01.199Z,91.40
2023-02-19T04:04:39.742Z,91.39
2023-02-19T04:05:32.461Z,91.35
2023-02-19T04:06:14.108Z,91.53
2023-02-19T04:06:55.124Z,91.74
2023-02-19T04:07:30.320Z,91.68
2023-02-19T04:08:14.262Z,91.59
2023-02-19T04:08:54.163Z,91.89
2023-02-19T04:09:43.754Z,91.82
2023-02-19T04:10:21.011Z,91.75
2023-02-19T04:11:00.590Z,91.53
2023-02-19T04:11:37.907Z,91.26
2023-02-19T04:12:15.066Z,91.14
2023-02-19T04:12:55.767Z,91.45
2023-02-19T04:13:45.784Z,91.21
2023-02-19T04:14:22.822Z,91.14
2023-02-19T04:15:06.847Z,91.21
2023-02-19T04:15:44.091Z,91.03
2023-02-19T04:16:28.856Z,91.13
2023-02-19T04:17:07.460Z,91.38
2023-02-19T04:17:47.919Z,91.60
2023-02-19T04:18:29.035Z,91.43
2023-02-19T04:19:23.841Z,91.40
2023-02-19T04:20:00.311Z,91.06
2023-02-19T04:20:39.676Z,91.07
2023-02-19T04:21:14.997Z,90.80
2023-02-19T04:21:54.432Z,90.94
2023-02-19T04:22:29.034Z,91.09
2023-02-19T04:23:03.835Z,91.08
2023-02-19T04:23:43.323Z,90.93
2023-02-19T04:24:27.634Z,90.93
2023-02-19T04:25:01.280Z,90.70
2023-02-19T04:25:38.283Z,90.67
2023-02-19T04:26:14.076Z,90.43
2023-02-19T04:26:48.144Z,90.63
2023-02-19T04:27:21.889Z,90.49
2023-02-19T04:27:55.835Z,90.47
2023-02-19T04:28:30.142Z,90.53
2023-02-19T04:29:04.271Z,90.49
2023-02-19T04:29:39.193Z,90.03
2023-02-19T04:30:14.368Z,90.00
2023-02-19T04:30:48.078Z,90.00
2023-02-19T04:31:21.700Z,89.42
2023-02-19T04:31:55.341Z,89.75
2023-02-19T04:32:28.918Z,89.64
2023-02-19T04:33:02.468Z,89.87
2023-02-19T04:33:36.701Z,90.09
2023-02-19T04:34:10.316Z,90.21
2023-02-19T04:34:46.986Z,89.83
2023-02-19T04:35:22.913Z,89.82
2023-02-19T04:35:56.619Z,89.96
2023-02-19T04:36:31.950Z,90.01
2023-02-19T04:37:06.046Z,89.98
2023-02-19T04:37:39.692Z,89.70
2023-02-19T04:38:14.604Z,89.85
2023-02-19T04:38:51.331Z,89.46
2023-02-19T04:39:24.901Z,89.41
2023-02-19T04:39:58.534Z,89.65
2023-02-19T04:40:35.193Z,89.45
2023-02-19T04:41:10.513Z,89.23
2023-02-19T04:41:44.352Z,89.16
2023-02-19T04:42:19.033Z,89.26
2023-02-19T04:42:53.586Z,89.25
2023-02-19T04:43:27.062Z,89.29
2023-02-19T04:44:00.712Z,89.36
2023-02-19T04:44:34.804Z,89.26
2023-02-19T04:45:08.860Z,88.97
2023-02-19T04:45:42.525Z,89.33
2023-02-19T04:46:16.139Z,88.72
2023-02-19T04:46:49.921Z,88.76
2023-02-19T04:47:23.704Z,89.13
2023-02-19T04:47:59.179Z,89.08
2023-02-19T04:48:32.703Z,88.43
2023-02-19T04:49:06.316Z,88.52
2023-02-19T04:49:39.889Z,88.89
2023-02-19T04:50:13.741Z,89.10
2023-02-19T04:50:47.320Z,88.68
2023-02-19T04:51:20.784Z,88.69
2023-02-19T04:51:54.282Z,88.92
2023-02-19T04:52:27.948Z,89.06
2023-02-19T04:53:01.739Z,89.02
2023-02-19T04:53:36.308Z,89.21
2023-02-19T04:54:10.098Z,88.91
2023-02-19T04:54:43.745Z,89.25
2023-02-19T04:55:17.895Z,89.34
2023-02-19T04:55:53.509Z,89.37
2023-02-19T04:56:27.044Z,89.24
2023-02-19T04:57:00.562Z,89.16
2023-02-19T04:57:35.448Z,89.26
2023-02-19T04:58:09.005Z,89.50
2023-02-19T04:58:43.480Z,89.24
2023-02-19T04:59:17.538Z,89.23
2023-02-19T04:59:51.042Z,89.06
2023-02-19T05:00:24.659Z,89.38
2023-02-19T05:00:58.477Z,89.07
2023-02-19T05:01:32.153Z,89.12
2023-02-19T05:02:06.242Z,89.32
2023-02-19T05:02:40.266Z,89.23
2023-02-19T05:03:14.272Z,88.96
2023-02-19T05:03:47.982Z,88.82
2023-02-19T05:04:21.514Z,88.48
2023-02-19T05:04:55.110Z,88.82
2023-02-19T05:05:28.728Z,88.88
2023-02-19T05:06:04.307Z,88.98
2023-02-19T05:06:37.923Z,89.01
2023-02-19T05:07:11.579Z,88.99
2023-02-19T05:07:45.179Z,89.16
2023-02-19T05:08:18.880Z,89.06
2023-02-19T05:08:52.466Z,89.04
2023-02-19T05:09:26.138Z,89.14
2023-02-19T05:10:00.100Z,89.03
2023-02-19T05:10:35.043Z,88.70
2023-02-19T05:11:11.656Z,88.59
2023-02-19T05:11:45.461Z,88.63
2023-02-19T05:12:21.736Z,88.69
2023-02-19T05:12:57.901Z,88.86
2023-02-19T05:13:32.303Z,88.54
2023-02-19T05:14:05.908Z,88.24
2023-02-19T05:14:39.479Z,88.48
2023-02-19T05:15:13.075Z,88.48
2023-02-19T05:15:55.927Z,88.17
2023-02-19T05:16:29.562Z,88.48
2023-02-19T05:17:03.042Z,88.51
2023-02-19T05:17:36.738Z,88.43
2023-02-19T05:18:11.519Z,88.44
2023-02-19T05:18:46.239Z,88.58
2023-02-19T05:19:19.859Z,88.58
2023-02-19T05:19:53.411Z,88.67
2023-02-19T05:20:26.962Z,88.79
2023-02-19T05:21:02.654Z,88.89
2023-02-19T05:21:37.103Z,88.72
2023-02-19T05:22:10.806Z,88.87
2023-02-19T05:22:45.098Z,89.06
2023-02-19T05:23:21.359Z,88.63
2023-02-19T05:23:55.739Z,88.54
2023-02-19T05:24:32.307Z,88.72
2023-02-19T05:25:07.093Z,88.77
2023-02-19T05:25:40.765Z,88.73
2023-02-19T05:26:23.239Z,88.57
2023-02-19T05:26:57.069Z,88.43
2023-02-19T05:27:31.578Z,88.57
2023-02-19T05:28:17.511Z,88.52
2023-02-19T05:28:55.288Z,88.58
2023-02-19T05:29:31.463Z,88.60
2023-02-19T05:30:05.349Z,88.55
2023-02-19T05:30:38.933Z,88.30
2023-02-19T05:31:13.953Z,88.53
2023-02-19T05:31:49.077Z,88.51
2023-02-19T05:32:22.705Z,88.41
2023-02-19T05:32:56.290Z,88.42
2023-02-19T05:33:29.913Z,88.46
2023-02-19T05:34:03.629Z,88.78
2023-02-19T05:34:37.269Z,88.87
2023-02-19T05:35:10.723Z,88.77
2023-02-19T05:35:47.232Z,88.61
2023-02-19T05:36:22.364Z,88.86
2023-02-19T05:36:55.890Z,88.96
2023-02-19T05:37:29.369Z,88.44
2023-02-19T05:38:03.152Z,88.31
2023-02-19T05:38:37.589Z,88.08
2023-02-19T05:39:12.679Z,88.30
2023-02-19T05:39:46.246Z,88.21
2023-02-19T05:40:19.749Z,88.37
2023-02-19T05:40:53.252Z,88.21
2023-02-19T05:41:29.756Z,88.45
2023-02-19T05:42:03.444Z,88.54
2023-02-19T05:42:37.068Z,88.87
2023-02-19T05:43:11.219Z,88.57
2023-02-19T05:43:46.676Z,88.34
2023-02-19T05:44:20.290Z,88.59
2023-02-19T05:44:53.898Z,88.46
2023-02-19T05:45:27.505Z,88.60
2023-02-19T05:46:01.126Z,88.86
2023-02-19T05:46:34.992Z,88.98
2023-02-19T05:47:11.152Z,88.60
2023-02-19T05:47:44.652Z,88.82
2023-02-19T05:48:18.389Z,88.86
2023-02-19T05:48:53.257Z,88.88
2023-02-19T05:49:27.214Z,88.86
2023-02-19T05:50:00.718Z,89.11
2023-02-19T05:50:36.645Z,88.87
2023-02-19T05:51:24.820Z,88.75
2023-02-19T05:51:58.506Z,89.02
2023-02-19T05:52:32.084Z,89.11
2023-02-19T05:53:06.245Z,88.99
2023-02-19T05:53:41.554Z,89.14
2023-02-19T05:54:15.030Z,89.44
2023-02-19T05:54:48.556Z,89.33
2023-02-19T05:55:22.322Z,89.45
2023-02-19T05:55:55.948Z,89.27
2023-02-19T05:56:32.154Z,89.47
2023-02-19T05:57:05.673Z,89.33
2023-02-19T05:57:51.491Z,89.26
2023-02-19T05:58:26.763Z,89.44
2023-02-19T05:59:04.188Z,89.21
2023-02-19T05:59:38.042Z,89.09
2023-02-19T06:00:13.905Z,89.31
2023-02-19T06:00:47.588Z,89.22
2023-02-19T06:01:23.304Z,89.23
2023-02-19T06:01:58.509Z,88.87
2023-02-19T06:02:32.115Z,89.13
2023-02-19T06:03:05.803Z,89.34
2023-02-19T06:03:39.436Z,89.42
2023-02-19T06:04:14.328Z,89.48
2023-02-19T06:04:48.574Z,89.30
2023-02-19T06:05:22.145Z,89.41
2023-02-19T06:05:55.715Z,89.75
2023-02-19T06:06:32.084Z,89.76
2023-02-19T06:07:05.588Z,89.98
2023-02-19T06:07:43.254Z,89.98
2023-02-19T06:08:16.852Z,89.75
2023-02-19T06:08:51.231Z,89.84
2023-02-19T06:09:24.870Z,89.79
2023-02-19T06:09:58.721Z,89.81
2023-02-19T06:10:32.309Z,89.74
2023-02-19T06:11:06.085Z,89.69
2023-02-19T06:11:41.785Z,89.65
2023-02-19T06:12:15.326Z,89.58
2023-02-19T06:12:56.737Z,88.89
2023-02-19T06:13:30.432Z,89.19
2023-02-19T06:14:04.649Z,89.60
2023-02-19T06:14:38.302Z,89.64
2023-02-19T06:15:11.896Z,89.69
2023-02-19T06:15:45.515Z,89.82
2023-02-19T06:16:19.663Z,89.67
2023-02-19T06:16:53.285Z,89.31
2023-02-19T06:17:27.125Z,89.04
2023-02-19T06:18:01.210Z,89.30
2023-02-19T06:18:35.728Z,89.44
2023-02-19T06:19:10.083Z,89.65
2023-02-19T06:19:43.998Z,89.55
2023-02-19T06:20:17.727Z,89.40
2023-02-19T06:20:51.423Z,89.45
2023-02-19T06:21:25.304Z,89.45
2023-02-19T06:21:58.842Z,89.38
2023-02-19T06:22:32.398Z,89.27
2023-02-19T06:23:06.547Z,88.94
2023-02-19T06:23:40.572Z,89.00
2023-02-19T06:24:14.163Z,88.82
2023-02-19T06:24:48.534Z,89.01
2023-02-19T06:25:22.177Z,89.28
2023-02-19T06:25:55.856Z,89.25
2023-02-19T06:26:29.551Z,89.48
2023-02-19T06:27:06.656Z,89.40
2023-02-19T06:27:40.355Z,89.19
2023-02-19T06:28:14.024Z,89.16
2023-02-19T06:28:49.922Z,89.19
2023-02-19T06:29:24.475Z,88.96
2023-02-19T06:29:58.280Z,89.40
2023-02-19T06:30:32.055Z,89.52
2023-02-19T06:31:06.640Z,89.56
2023-02-19T06:31:40.413Z,89.65
2023-02-19T06:32:14.204Z,89.63
2023-02-19T06:32:47.924Z,89.83
2023-02-19T06:33:21.690Z,89.88
2023-02-19T06:33:55.611Z,89.71
2023-02-19T06:34:29.189Z,89.79
2023-02-19T06:35:03.677Z,89.73
2023-02-19T06:35:39.296Z,89.89
2023-02-19T06:36:15.826Z,89.77
2023-02-19T06:36:49.916Z,89.47
2023-02-19T06:37:23.475Z,89.29
2023-02-19T06:37:57.060Z,89.43
2023-02-19T06:38:31.089Z,89.51
2023-02-19T06:39:05.526Z,89.40
2023-02-19T06:39:39.260Z,89.11
2023-02-19T06:40:12.788Z,88.66
2023-02-19T06:40:46.726Z,88.75
2023-02-19T06:41:20.261Z,88.98
2023-02-19T06:41:57.551Z,89.15
2023-02-19T06:42:33.910Z,88.69
2023-02-19T06:43:07.465Z,88.64
2023-02-19T06:43:41.270Z,88.86
2023-02-19T06:44:14.760Z,89.07
2023-02-19T06:44:48.241Z,89.04
2023-02-19T06:45:21.668Z,88.45
2023-02-19T06:45:55.363Z,88.08
2023-02-19T06:46:28.858Z,88.21
2023-02-19T06:47:02.288Z,88.04
2023-02-19T06:47:35.800Z,88.27
2023-02-19T06:48:09.370Z,88.35
2023-02-19T06:48:45.161Z,88.38
2023-02-19T06:49:22.354Z,88.31
2023-02-19T06:49:55.835Z,88.52
2023-02-19T06:50:29.269Z,88.76
2023-02-19T06:51:03.783Z,88.89
2023-02-19T06:51:37.260Z,89.21
2023-02-19T06:52:10.796Z,89.05
2023-02-19T06:52:44.250Z,89.33
2023-02-19T06:53:17.676Z,88.98
2023-02-19T06:53:51.278Z,89.07
2023-02-19T06:54:25.982Z,89.02
2023-02-19T06:54:59.428Z,88.65
2023-02-19T06:55:32.888Z,88.51
2023-02-19T06:56:21.005Z,88.55
2023-02-19T06:56:54.895Z,88.80
2023-02-19T06:57:28.534Z,88.74
2023-02-19T06:58:01.892Z,88.50
2023-02-19T06:58:35.658Z,88.55
2023-02-19T06:59:14.302Z,88.58
2023-02-19T06:59:47.896Z,88.35
2023-02-19T07:00:21.627Z,88.04
2023-02-19T07:00:55.642Z,87.81
2023-02-19T07:01:31.773Z,87.37
2023-02-19T07:02:05.534Z,87.33
2023-02-19T07:02:39.307Z,87.19
2023-02-19T07:03:12.917Z,87.14
2023-02-19T07:03:46.653Z,87.38
2023-02-19T07:04:20.336Z,87.51
2023-02-19T07:04:54.090Z,87.77
2023-02-19T07:05:28.193Z,87.58
2023-02-19T07:06:01.773Z,87.39
2023-02-19T07:06:36.504Z,87.65
2023-02-19T07:07:12.433Z,87.43
2023-02-19T07:07:46.508Z,87.52
2023-02-19T07:08:20.168Z,87.81
2023-02-19T07:08:56.220Z,87.86
2023-02-19T07:09:29.827Z,87.31
2023-02-19T07:10:04.369Z,87.03
2023-02-19T07:10:38.227Z,87.17
2023-02-19T07:11:12.004Z,87.43
2023-02-19T07:11:45.811Z,87.29
2023-02-19T07:12:19.458Z,87.19
2023-02-19T07:12:53.179Z,87.28
2023-02-19T07:13:27.630Z,87.46
2023-02-19T07:14:04.450Z,87.78
2023-02-19T07:14:38.066Z,87.53
2023-02-19T07:15:11.863Z,87.43
2023-02-19T07:15:45.447Z,87.20
2023-02-19T07:16:20.845Z,86.91
2023-02-19T07:16:54.422Z,86.79
2023-02-19T07:17:27.996Z,86.87
2023-02-19T07:18:01.732Z,86.82
2023-02-19T07:18:35.953Z,86.72
2023-02-19T07:19:11.307Z,86.51
2023-02-19T07:19:44.875Z,86.63
2023-02-19T07:20:18.463Z,87.00
2023-02-19T07:20:52.114Z,87.10
2023-02-19T07:21:26.754Z,86.92
2023-02-19T07:22:00.402Z,86.41
2023-02-19T07:22:34.145Z,86.93
2023-02-19T07:23:07.656Z,87.08
2023-02-19T07:23:42.343Z,87.16
2023-02-19T07:24:16.093Z,86.94
2023-02-19T07:24:49.624Z,86.77
2023-02-19T07:25:25.933Z,86.37
2023-02-19T07:25:59.600Z,86.69
2023-02-19T07:26:33.346Z,86.88
2023-02-19T07:27:06.909Z,86.91
2023-02-19T07:27:40.372Z,86.78
2023-02-19T07:28:14.108Z,87.12
2023-02-19T07:28:50.181Z,87.20
2023-02-19T07:29:23.783Z,87.38
2023-02-19T07:29:57.635Z,87.57
2023-02-19T07:30:31.220Z,87.60
2023-02-19T07:31:05.316Z,87.30
2023-02-19T07:31:39.017Z,87.10
2023-02-19T07:32:12.716Z,86.89
2023-02-19T07:32:46.412Z,86.84
2023-02-19T07:33:20.176Z,86.96
2023-02-19T07:33:53.763Z,86.90
2023-02-19T07:34:27.504Z,86.70
2023-02-19T07:35:01.104Z,86.95
2023-02-19T07:35:34.716Z,87.07
2023-02-19T07:36:08.819Z,87.34
2023-02-19T07:36:42.302Z,86.98
2023-02-19T07:37:15.776Z,87.10
2023-02-19T07:37:49.676Z,86.79
2023-02-19T07:38:25.083Z,86.40
2023-02-19T07:39:00.226Z,86.46
2023-02-19T07:39:33.891Z,86.73
2023-02-19T07:40:25.060Z,87.17
2023-02-19T07:41:00.685Z,87.35
2023-02-19T07:41:34.247Z,87.11
2023-02-19T07:42:07.769Z,87.00
2023-02-19T07:42:41.595Z,86.16
2023-02-19T07:43:15.105Z,86.20
2023-02-19T07:43:48.646Z,85.68
2023-02-19T07:44:22.125Z,85.81
2023-02-19T07:44:55.761Z,85.93
2023-02-19T07:45:29.294Z,85.89
2023-02-19T07:46:05.464Z,85.74
2023-02-19T07:46:39.074Z,85.55
2023-02-19T07:47:12.676Z,85.65
2023-02-19T07:47:46.256Z,85.78
2023-02-19T07:48:20.959Z,85.97
2023-02-19T07:48:54.526Z,86.10
2023-02-19T07:49:29.068Z,86.02
2023-02-19T07:50:02.661Z,86.33
2023-02-19T07:50:36.571Z,86.69
2023-02-19T07:51:19.186Z,86.86
2023-02-19T07:51:53.178Z,86.94
2023-02-19T07:52:27.028Z,86.67
2023-02-19T07:53:00.576Z,85.71
2023-02-19T07:53:35.776Z,85.54
2023-02-19T07:54:09.750Z,85.79
2023-02-19T07:54:43.433Z,85.49
2023-02-19T07:55:17.405Z,85.62
2023-02-19T07:55:51.724Z,85.74
2023-02-19T07:56:25.338Z,85.82
2023-02-19T07:57:00.048Z,85.78
2023-02-19T07:57:33.706Z,85.76
2023-02-19T07:58:07.306Z,85.32
2023-02-19T07:58:41.672Z,85.13
2023-02-19T07:59:16.049Z,85.15
2023-02-19T07:59:49.738Z,85.23
2023-02-19T08:00:23.316Z,84.92
2023-02-19T08:00:57.150Z,84.91
2023-02-19T08:01:49.495Z,84.71
2023-02-19T08:02:41.675Z,85.05